This is the latest recevied weather packets stored in our database for station/object S57ZT-10. If no packets are shown the sender has not sent any weather packets the latest 10 day(s).
| Time | Temp. | Humidity | Pressure | Rain* | Wind** | Luminosity | Snow |
|---|---|---|---|---|---|---|---|
| 1777827753 | 25.56° C | 28% | 1017.8 hPa | - | - | - | - |
| 1777826853 | 26.11° C | 28% | 1017.6 hPa | - | - | - | - |
| 1777826014 | 26.67° C | 28% | 1017.6 hPa | - | - | - | - |
| 1777825959 | 26.67° C | 28% | 1017.6 hPa | - | - | - | - |
| 1777824214 | 27.22° C | 26% | 1017.6 hPa | - | - | - | - |
| 1777824161 | 27.22° C | 26% | 1017.6 hPa | - | - | - | - |
| 1777823258 | 27.78° C | 25% | 1017.5 hPa | - | - | - | - |
| 1777822362 | 28.33° C | 26% | 1017.6 hPa | - | - | - | - |
| 1777820657 | 29.44° C | 24% | 1017.8 hPa | - | - | - | - |
| 1777820558 | 29.44° C | 24% | 1017.8 hPa | - | - | - | - |
| 1777819729 | 30° C | 25% | 1017.8 hPa | - | - | - | - |
| 1777819658 | 30° C | 25% | 1017.8 hPa | - | - | - | - |
| 1777818818 | 30° C | 24% | 1018.1 hPa | - | - | - | - |
| 1777818767 | 30° C | 24% | 1018.1 hPa | - | - | - | - |
| 1777816961 | 30° C | 24% | 1018.2 hPa | - | - | - | - |
| 1777816057 | 30° C | 24% | 1018.4 hPa | - | - | - | - |
| 1777815148 | 30° C | 24% | 1018.5 hPa | - | - | - | - |
| 1777813349 | 31.11° C | 23% | 1018.8 hPa | - | - | - | - |
| 1777812446 | 31.11° C | 22% | 1018.9 hPa | - | - | - | - |
| 1777811547 | 32.22° C | 21% | 1019.1 hPa | - | - | - | - |
| 1777808848 | 32.78° C | 20% | 1019.2 hPa | - | - | - | - |
| 1777807948 | 32.78° C | 20% | 1019.3 hPa | - | - | - | - |
| 1777805253 | 31.67° C | 23% | 1019.9 hPa | - | - | - | - |
| 1777804353 | 31.11° C | 25% | 1020 hPa | - | - | - | - |
| 1777802546 | 30.56° C | 26% | 1020.4 hPa | - | - | - | - |
* Rain since midnight (hover to see other rain measurements)
** Current wind speed in m/s (hover to see current wind gust speed)